Time;durP1;ratioP1;P1;durP2;ratioP2;P2;SDS_P1;SDS_P2;PMS_P1;PMS_P2;Temp;Humidity;BMP_temperature;BMP_pressure;BME280_temperature;BME280_humidity;BME280_pressure;Samples;Min_cycle;Max_cycle;Signal;HPM_P1;HPM_P2
2022/04/18 00:01:28;;;;;;;9.60;6.07;;;5.30;68.70;;;;;;4978974;28;20294;-92
2022/04/18 00:03:55;;;;;;;8.10;6.27;;;5.20;68.90;;;;;;4978795;28;20185;-92
2022/04/18 00:06:21;;;;;;;11.10;6.80;;;5.20;69.30;;;;;;4978564;28;20212;-92
2022/04/18 00:08:46;;;;;;;8.60;6.90;;;5.10;69.60;;;;;;4978801;28;20177;-92
2022/04/18 00:11:12;;;;;;;8.83;6.20;;;4.90;70.00;;;;;;4979834;28;20189;-91
2022/04/18 00:13:38;;;;;;;10.50;6.60;;;4.60;70.60;;;;;;4978957;28;20203;-91
2022/04/18 00:16:04;;;;;;;8.33;6.30;;;4.50;71.00;;;;;;4978797;28;20202;-91
2022/04/18 00:18:29;;;;;;;8.97;5.80;;;4.50;71.10;;;;;;4978697;28;20175;-91
2022/04/18 00:20:55;;;;;;;8.77;5.97;;;4.60;70.90;;;;;;4996296;28;20290;-92
2022/04/18 00:23:20;;;;;;;11.33;6.07;;;4.70;70.90;;;;;;4995817;28;20212;-91
2022/04/18 00:25:46;;;;;;;8.87;6.43;;;4.60;70.70;;;;;;4978789;28;20667;-91
2022/04/18 00:28:12;;;;;;;11.90;8.27;;;4.70;70.60;;;;;;4978572;28;20179;-91
2022/04/18 00:30:38;;;;;;;10.33;6.70;;;4.80;70.50;;;;;;4979425;28;20177;-91
2022/04/18 00:33:04;;;;;;;12.87;6.87;;;4.70;70.40;;;;;;4978615;28;20644;-91
2022/04/18 00:35:29;;;;;;;13.07;6.90;;;4.50;70.30;;;;;;4978137;28;20220;-91
2022/04/18 00:37:55;;;;;;;12.20;7.50;;;4.40;71.00;;;;;;4995568;28;20182;-91
2022/04/18 00:40:21;;;;;;;13.10;7.77;;;4.40;71.30;;;;;;4978215;28;20265;-92
2022/04/18 00:42:46;;;;;;;13.53;7.17;;;4.50;71.20;;;;;;4978178;28;20208;-91
2022/04/18 00:45:12;;;;;;;13.80;7.63;;;4.50;71.00;;;;;;4995341;28;20274;-91
2022/04/18 00:47:37;;;;;;;13.33;7.43;;;4.60;70.90;;;;;;4978009;28;20182;-91
2022/04/18 00:50:03;;;;;;;12.83;7.07;;;4.60;70.50;;;;;;4995503;28;20681;-91
2022/04/18 00:52:30;;;;;;;10.17;6.70;;;4.60;70.20;;;;;;4995718;28;20277;-91
2022/04/18 00:55:00;;;;;;;8.80;6.17;;;4.60;70.30;;;;;;4977917;28;20234;-91
2022/04/18 00:57:28;;;;;;;8.83;6.20;;;4.50;70.20;;;;;;4978404;28;20178;-93
2022/04/18 00:59:53;;;;;;;8.93;6.47;;;4.60;70.20;;;;;;4995618;28;20178;-92
2022/04/18 01:02:19;;;;;;;9.00;5.87;;;4.60;70.10;;;;;;4977664;28;20206;-92
2022/04/18 01:04:44;;;;;;;10.43;6.67;;;4.50;69.90;;;;;;4977665;28;20244;-93
2022/04/18 01:07:11;;;;;;;7.97;5.97;;;4.60;69.60;;;;;;4978380;28;20274;-91
2022/04/18 01:09:38;;;;;;;13.47;5.90;;;4.50;69.30;;;;;;4978142;28;20186;-91
2022/04/18 01:12:04;;;;;;;9.10;6.37;;;4.50;69.40;;;;;;4978259;28;20210;-92
2022/04/18 01:14:29;;;;;;;10.07;6.77;;;4.50;69.40;;;;;;4977788;28;20683;-91
2022/04/18 01:16:55;;;;;;;9.43;5.73;;;4.40;69.10;;;;;;4978085;28;20246;-91
2022/04/18 01:19:21;;;;;;;9.43;6.20;;;4.40;69.80;;;;;;4995349;28;20182;-91
2022/04/18 01:21:46;;;;;;;8.27;5.70;;;4.30;70.30;;;;;;4977307;28;20203;-91
2022/04/18 01:29:40;;;;;;;19.67;10.57;;;4.30;70.90;;;;;;4996322;28;20246;-92
2022/04/18 01:32:06;;;;;;;19.67;10.13;;;4.00;71.10;;;;;;4978389;28;20659;-92
2022/04/18 01:34:32;;;;;;;10.40;7.20;;;4.00;71.30;;;;;;4977717;28;20257;-92
2022/04/18 01:36:57;;;;;;;13.53;7.70;;;4.00;71.40;;;;;;4978029;28;20208;-92
2022/04/18 01:39:23;;;;;;;12.70;8.53;;;4.00;71.30;;;;;;4977995;28;20570;-92
2022/04/18 01:41:48;;;;;;;10.10;7.20;;;4.00;71.20;;;;;;4978477;28;20690;-92
2022/04/18 01:44:14;;;;;;;13.27;7.17;;;3.90;71.10;;;;;;4977772;28;20652;-92
2022/04/18 01:46:39;;;;;;;10.47;7.13;;;3.90;71.20;;;;;;4978619;28;20175;-92
2022/04/18 01:49:05;;;;;;;12.47;7.63;;;3.90;71.10;;;;;;4977638;28;20170;-92
2022/04/18 01:51:31;;;;;;;10.67;6.67;;;3.90;70.90;;;;;;4977471;28;20587;-92
2022/04/18 01:53:56;;;;;;;10.93;6.87;;;3.90;70.80;;;;;;4977485;28;20181;-92
2022/04/18 01:56:22;;;;;;;12.77;7.00;;;4.00;70.70;;;;;;4977638;28;20202;-92
2022/04/18 01:58:48;;;;;;;11.20;6.17;;;4.00;70.50;;;;;;4977622;28;20257;-92
2022/04/18 02:01:15;;;;;;;9.63;6.73;;;4.00;70.30;;;;;;4977714;28;20202;-92
2022/04/18 02:03:43;;;;;;;13.40;6.93;;;3.90;70.30;;;;;;4977669;28;20174;-92
2022/04/18 02:06:10;;;;;;;9.43;6.93;;;3.90;70.30;;;;;;4977570;28;20198;-92
2022/04/18 02:08:36;;;;;;;13.23;7.60;;;3.90;70.20;;;;;;4977878;28;20174;-92
2022/04/18 02:11:02;;;;;;;9.73;6.97;;;3.80;70.00;;;;;;4977461;28;20667;-92
2022/04/18 02:13:28;;;;;;;11.53;6.70;;;3.80;70.00;;;;;;4977981;28;20180;-92
2022/04/18 02:15:57;;;;;;;11.53;6.77;;;3.70;69.90;;;;;;4977246;28;20197;-92
2022/04/18 02:18:23;;;;;;;8.47;6.43;;;3.70;70.00;;;;;;4977778;28;20183;-92
2022/04/18 02:20:49;;;;;;;9.20;6.60;;;3.70;70.00;;;;;;4977966;28;20671;-92
2022/04/18 02:23:14;;;;;;;8.53;5.93;;;3.70;69.90;;;;;;4981268;28;20188;-92
2022/04/18 02:25:40;;;;;;;8.40;5.83;;;3.70;69.90;;;;;;4981340;28;20252;-92
2022/04/18 02:28:06;;;;;;;7.87;5.60;;;3.60;69.90;;;;;;4982013;28;20185;-92
2022/04/18 02:30:32;;;;;;;8.27;5.80;;;3.60;69.90;;;;;;4981208;28;20178;-92
2022/04/18 02:32:57;;;;;;;7.43;6.03;;;3.50;69.80;;;;;;4981287;28;20269;-92
2022/04/18 02:35:24;;;;;;;6.87;5.93;;;3.50;69.80;;;;;;4980648;28;20224;-92
2022/04/18 02:37:51;;;;;;;12.30;5.63;;;3.50;70.00;;;;;;4981317;28;20235;-92
2022/04/18 02:40:16;;;;;;;10.57;6.07;;;3.50;70.10;;;;;;4981047;28;20174;-92
2022/04/18 02:42:42;;;;;;;11.33;6.27;;;3.50;70.20;;;;;;4980704;28;20205;-92
2022/04/18 02:45:10;;;;;;;15.07;6.63;;;3.50;70.20;;;;;;4981820;28;20571;-92
2022/04/18 02:47:35;;;;;;;9.37;6.70;;;3.40;70.20;;;;;;4981031;28;20178;-92
2022/04/18 02:50:01;;;;;;;12.37;6.47;;;3.40;70.10;;;;;;4981362;28;20185;-92
2022/04/18 02:52:26;;;;;;;9.13;6.50;;;3.40;70.00;;;;;;4980853;28;20178;-92
2022/04/18 02:54:52;;;;;;;14.10;6.87;;;3.40;70.10;;;;;;4981002;28;20198;-92
2022/04/18 02:57:17;;;;;;;9.50;6.70;;;3.30;70.50;;;;;;4981382;28;20185;-92
2022/04/18 02:59:43;;;;;;;14.53;6.33;;;3.30;71.10;;;;;;4981013;28;20265;-92
2022/04/18 03:02:08;;;;;;;8.87;6.23;;;3.30;71.10;;;;;;4980560;28;20202;-92
2022/04/18 03:04:34;;;;;;;7.80;6.20;;;3.30;71.10;;;;;;4980666;28;20292;-92
2022/04/18 03:07:00;;;;;;;11.57;7.47;;;3.30;71.00;;;;;;4980789;28;20182;-92
2022/04/18 03:09:26;;;;;;;11.00;6.57;;;3.20;71.30;;;;;;4998483;28;20174;-92
2022/04/18 03:11:52;;;;;;;12.07;6.23;;;3.30;72.10;;;;;;4980725;28;20231;-91
2022/04/18 03:14:17;;;;;;;8.53;6.20;;;3.10;72.70;;;;;;4980483;28;20180;-92
2022/04/18 03:16:43;;;;;;;8.33;5.87;;;3.00;73.50;;;;;;4980591;28;20221;-92
2022/04/18 03:19:08;;;;;;;8.07;6.17;;;2.80;74.20;;;;;;4980365;28;20182;-91
2022/04/18 03:21:34;;;;;;;11.23;6.23;;;2.80;74.60;;;;;;4980615;28;20208;-91
2022/04/18 03:23:59;;;;;;;7.40;6.30;;;2.80;75.00;;;;;;4980228;28;20178;-91
2022/04/18 03:26:25;;;;;;;8.20;6.40;;;2.90;74.60;;;;;;4980370;28;20176;-92
2022/04/18 03:28:50;;;;;;;8.17;5.40;;;2.90;74.60;;;;;;4980336;28;20181;-92
2022/04/18 03:31:16;;;;;;;8.50;6.30;;;3.00;74.40;;;;;;4980219;28;20270;-91
2022/04/18 03:33:42;;;;;;;7.10;5.67;;;2.90;74.20;;;;;;4979935;28;20182;-92
2022/04/18 03:41:35;;;;;;;8.43;6.00;;;2.90;73.70;;;;;;5016259;28;20204;-89
2022/04/18 03:44:01;;;;;;;9.93;6.23;;;2.90;73.50;;;;;;5016096;28;20169;-90
2022/04/18 03:46:26;;;;;;;8.47;6.47;;;2.80;73.30;;;;;;4998745;28;20652;-89
2022/04/18 03:48:53;;;;;;;8.60;5.90;;;2.80;73.30;;;;;;4998744;28;20181;-89
2022/04/18 03:51:19;;;;;;;8.67;5.60;;;2.80;73.40;;;;;;4998471;28;20188;-88
2022/04/18 03:53:44;;;;;;;7.90;6.10;;;2.80;73.30;;;;;;4998472;28;20646;-91
2022/04/18 03:56:10;;;;;;;10.50;6.50;;;2.80;73.40;;;;;;4998315;28;20254;-87
2022/04/18 03:58:35;;;;;;;9.67;6.70;;;2.80;74.30;;;;;;5015988;28;20184;-89
2022/04/18 04:01:01;;;;;;;13.27;6.53;;;2.70;74.40;;;;;;4998172;28;20201;-88
2022/04/18 04:03:26;;;;;;;10.37;6.30;;;2.60;74.70;;;;;;4998378;28;20541;-90
2022/04/18 04:05:53;;;;;;;8.23;6.60;;;2.70;74.90;;;;;;5015773;28;20622;-89
2022/04/18 04:08:22;;;;;;;14.57;7.00;;;2.70;74.80;;;;;;4998208;28;20268;-89
2022/04/18 04:10:50;;;;;;;10.60;6.50;;;2.70;74.80;;;;;;5015706;28;20169;-88
2022/04/18 04:13:15;;;;;;;9.43;6.73;;;2.70;74.70;;;;;;4998291;28;20176;-88
2022/04/18 04:15:41;;;;;;;10.03;6.37;;;2.80;74.80;;;;;;5015546;28;20196;-88
2022/04/18 04:18:07;;;;;;;10.07;6.43;;;2.80;75.10;;;;;;4999227;28;20181;-88
2022/04/18 04:20:32;;;;;;;9.03;7.37;;;2.60;75.70;;;;;;5015471;28;20646;-90
2022/04/18 04:22:58;;;;;;;10.57;7.63;;;2.50;76.70;;;;;;4997841;28;20215;-89
2022/04/18 04:25:23;;;;;;;11.43;7.30;;;2.30;77.60;;;;;;4997857;28;20196;-89
2022/04/18 04:27:49;;;;;;;10.17;7.17;;;2.30;78.20;;;;;;4997796;28;20177;-89
2022/04/18 04:30:14;;;;;;;12.43;7.97;;;2.30;78.40;;;;;;4997790;28;20207;-88
2022/04/18 04:32:40;;;;;;;11.50;8.00;;;2.40;78.60;;;;;;4997767;28;20260;-88
2022/04/18 04:35:06;;;;;;;13.53;7.70;;;2.40;78.70;;;;;;4998346;28;20223;-88
2022/04/18 04:37:31;;;;;;;9.17;6.90;;;2.70;78.60;;;;;;5015141;28;20220;-90
2022/04/18 04:39:57;;;;;;;11.20;7.70;;;3.00;78.20;;;;;;4997501;28;20182;-89
2022/04/18 04:42:22;;;;;;;14.27;7.43;;;3.10;77.40;;;;;;5014800;28;20205;-89
2022/04/18 04:44:48;;;;;;;10.27;7.27;;;3.30;77.10;;;;;;5014406;28;20229;-89
2022/04/18 04:47:13;;;;;;;10.10;7.50;;;3.50;76.50;;;;;;4997393;28;20173;-89
2022/04/18 04:49:39;;;;;;;10.97;6.77;;;3.80;76.00;;;;;;4997771;28;20638;-89
2022/04/18 04:52:05;;;;;;;11.67;7.93;;;4.00;74.80;;;;;;4997177;28;20643;-89
2022/04/18 04:54:31;;;;;;;11.73;7.43;;;4.10;73.70;;;;;;4997172;28;20602;-89
2022/04/18 04:56:57;;;;;;;9.10;7.03;;;4.10;74.50;;;;;;4997227;28;20185;-89
2022/04/18 04:59:22;;;;;;;8.93;7.03;;;4.20;74.30;;;;;;4997194;28;20280;-90
2022/04/18 05:01:48;;;;;;;11.83;7.87;;;4.30;74.90;;;;;;4997033;28;20255;-89
2022/04/18 05:04:13;;;;;;;12.90;7.63;;;4.50;74.80;;;;;;4997014;28;20232;-89
2022/04/18 05:06:39;;;;;;;12.13;6.60;;;4.60;74.40;;;;;;4996985;28;20663;-89
2022/04/18 05:09:04;;;;;;;12.30;8.10;;;4.70;73.90;;;;;;5014448;28;20252;-89
2022/04/18 05:11:30;;;;;;;10.33;7.13;;;4.70;73.20;;;;;;5014476;28;20178;-89
2022/04/18 05:13:55;;;;;;;10.63;7.90;;;4.50;73.50;;;;;;5014611;28;20173;-89
2022/04/18 05:16:21;;;;;;;9.80;7.33;;;4.40;74.00;;;;;;4996762;28;20204;-89
2022/04/18 05:18:47;;;;;;;11.93;8.23;;;4.30;75.10;;;;;;5014314;28;20226;-88
2022/04/18 05:21:12;;;;;;;11.23;7.53;;;4.30;75.60;;;;;;4996664;28;20263;-89
2022/04/18 05:23:38;;;;;;;11.13;8.13;;;4.30;75.70;;;;;;4996661;28;20578;-88
2022/04/18 05:26:03;;;;;;;12.87;7.70;;;4.30;75.70;;;;;;5014109;28;20221;-90
2022/04/18 05:28:29;;;;;;;8.77;7.10;;;4.40;75.80;;;;;;5014154;28;20184;-90
2022/04/18 05:30:55;;;;;;;11.10;7.70;;;4.40;75.90;;;;;;4996444;28;20558;-90
2022/04/18 05:33:21;;;;;;;12.13;8.83;;;4.50;76.60;;;;;;5014322;28;20212;-89
2022/04/18 05:35:47;;;;;;;13.80;7.63;;;4.60;77.00;;;;;;5013791;28;20591;-89
2022/04/18 05:38:14;;;;;;;14.00;8.43;;;4.70;77.30;;;;;;5013876;28;20184;-88
2022/04/18 05:40:40;;;;;;;14.00;7.93;;;4.80;77.80;;;;;;4996363;28;20725;-89
2022/04/18 05:43:06;;;;;;;10.87;8.03;;;4.90;78.10;;;;;;4996576;28;20562;-88
2022/04/18 05:45:31;;;;;;;11.13;8.47;;;4.90;78.20;;;;;;4996145;28;20284;-88
2022/04/18 05:47:57;;;;;;;15.90;9.60;;;5.10;78.50;;;;;;4996265;28;20191;-88
2022/04/18 05:50:23;;;;;;;15.37;9.80;;;5.20;78.60;;;;;;4996166;28;20189;-90
2022/04/18 05:52:48;;;;;;;13.47;10.03;;;5.30;78.50;;;;;;5014039;28;20201;-90
2022/04/18 05:55:14;;;;;;;14.53;9.57;;;5.40;78.70;;;;;;5012827;28;20195;-90
2022/04/18 05:57:39;;;;;;;22.60;9.93;;;5.50;78.90;;;;;;5014408;28;20177;-89
2022/04/18 06:00:05;;;;;;;15.73;10.07;;;5.70;78.80;;;;;;5019733;28;20205;-89
2022/04/18 06:02:31;;;;;;;15.67;10.13;;;5.80;78.80;;;;;;5002998;28;20227;-90
2022/04/18 06:04:57;;;;;;;13.70;9.57;;;6.00;78.70;;;;;;5002174;28;20692;-91
2022/04/18 06:07:23;;;;;;;12.57;10.20;;;6.20;79.20;;;;;;4998466;28;20183;-89
2022/04/18 06:09:48;;;;;;;14.20;9.17;;;6.30;79.70;;;;;;4996002;28;20215;-89
2022/04/18 06:12:20;;;;;;;14.50;9.53;;;6.30;78.90;;;;;;4995918;28;20179;-90
2022/04/18 06:14:45;;;;;;;14.87;9.83;;;6.50;78.30;;;;;;4995820;28;20169;-89
2022/04/18 06:17:11;;;;;;;11.90;9.63;;;6.60;77.70;;;;;;4995995;28;20205;-89
2022/04/18 06:19:36;;;;;;;14.47;10.10;;;6.70;76.90;;;;;;5013468;28;20256;-89
2022/04/18 06:22:03;;;;;;;12.23;9.23;;;6.90;77.40;;;;;;4995905;28;20338;-90
2022/04/18 06:24:29;;;;;;;13.17;9.30;;;7.00;77.00;;;;;;4995841;28;20180;-89
2022/04/18 06:26:54;;;;;;;13.97;9.73;;;7.20;76.50;;;;;;4995814;28;20208;-90
2022/04/18 06:29:20;;;;;;;14.20;9.60;;;7.30;76.50;;;;;;4995738;28;20183;-90
2022/04/18 06:31:46;;;;;;;13.80;10.60;;;7.30;76.60;;;;;;4995856;28;20177;-90
2022/04/18 06:34:12;;;;;;;13.13;10.00;;;7.50;75.90;;;;;;4996614;28;20177;-90
2022/04/18 06:36:38;;;;;;;16.13;10.43;;;7.50;75.90;;;;;;4995469;28;20221;-90
2022/04/18 06:39:04;;;;;;;15.33;9.60;;;7.70;76.20;;;;;;4995702;28;20180;-89
2022/04/18 06:41:30;;;;;;;13.57;10.03;;;7.80;76.10;;;;;;4995640;28;20292;-90
2022/04/18 06:43:55;;;;;;;16.40;10.40;;;7.90;75.50;;;;;;4995668;28;20284;-90
2022/04/18 06:46:21;;;;;;;13.03;9.10;;;8.10;75.70;;;;;;5013035;28;20225;-89
2022/04/18 06:48:46;;;;;;;15.37;10.30;;;8.20;75.00;;;;;;5013188;28;20267;-90
2022/04/18 06:51:12;;;;;;;14.37;10.07;;;8.30;74.70;;;;;;4995651;28;20185;-90
2022/04/18 06:53:37;;;;;;;15.63;10.27;;;8.50;74.90;;;;;;4995596;28;20272;-90
2022/04/18 06:58:55;;;;;;;14.63;9.57;;;8.70;72.60;;;;;;4990371;28;20195;-89
2022/04/18 07:01:20;;;;;;;16.07;9.73;;;8.90;71.70;;;;;;5012960;28;20213;-90
2022/04/18 07:03:46;;;;;;;13.40;9.77;;;8.90;71.00;;;;;;4995565;28;20268;-90
2022/04/18 07:06:11;;;;;;;14.50;10.03;;;8.90;70.70;;;;;;4995883;28;20257;-90
2022/04/18 07:08:38;;;;;;;14.50;9.93;;;8.90;69.30;;;;;;4999113;28;20174;-90
2022/04/18 07:11:04;;;;;;;13.17;10.20;;;9.00;69.00;;;;;;4999141;28;20665;-91
2022/04/18 07:13:29;;;;;;;16.17;9.57;;;8.90;69.70;;;;;;4999080;28;20187;-90
2022/04/18 07:15:55;;;;;;;12.60;9.63;;;9.20;70.50;;;;;;4999062;28;20205;-91
2022/04/18 07:18:20;;;;;;;12.93;8.63;;;9.30;70.20;;;;;;4999053;28;20193;-90
2022/04/18 07:20:46;;;;;;;18.83;10.57;;;9.50;69.00;;;;;;5000425;28;20208;-87
2022/04/18 07:23:12;;;;;;;16.50;9.00;;;9.50;69.00;;;;;;5004512;28;20390;-91
2022/04/18 07:25:38;;;;;;;14.93;9.73;;;9.70;69.40;;;;;;5000465;28;20228;-90
2022/04/18 07:28:04;;;;;;;13.20;10.47;;;9.90;68.90;;;;;;4998768;28;20278;-90
2022/04/18 07:30:30;;;;;;;15.33;9.93;;;10.00;68.60;;;;;;5016208;28;20174;-90
2022/04/18 07:32:56;;;;;;;14.27;9.30;;;10.20;68.60;;;;;;4999512;28;20185;-90
2022/04/18 07:35:22;;;;;;;14.80;10.90;;;10.30;68.00;;;;;;5016057;28;20223;-91
2022/04/18 07:40:31;;;;;;;12.73;10.13;;;10.50;66.80;;;;;;5016463;28;20165;-90
2022/04/18 07:42:57;;;;;;;14.03;9.97;;;10.30;65.20;;;;;;4998739;28;20201;-91
2022/04/18 07:45:22;;;;;;;15.77;9.90;;;10.50;65.20;;;;;;5015930;28;20197;-89
2022/04/18 07:47:50;;;;;;;16.83;9.03;;;10.80;66.20;;;;;;4999327;28;20173;-90
2022/04/18 07:50:16;;;;;;;13.33;9.50;;;10.90;64.00;;;;;;4998367;28;20269;-90
2022/04/18 07:52:41;;;;;;;14.43;9.40;;;11.10;65.60;;;;;;4998647;28;20268;-90
2022/04/18 07:55:07;;;;;;;12.70;8.73;;;11.20;63.90;;;;;;4999267;28;20284;-90
2022/04/18 07:57:32;;;;;;;18.87;9.67;;;11.30;62.30;;;;;;4999137;28;20205;-91
2022/04/18 07:59:58;;;;;;;16.13;9.37;;;11.50;63.70;;;;;;4998226;28;20227;-91
2022/04/18 08:02:24;;;;;;;12.53;8.77;;;11.50;60.70;;;;;;5015635;28;20205;-90
2022/04/18 08:04:50;;;;;;;12.97;8.73;;;11.70;61.90;;;;;;4999136;28;20193;-91
2022/04/18 08:07:15;;;;;;;14.40;9.30;;;11.80;60.20;;;;;;4998140;28;20173;-90
2022/04/18 08:09:41;;;;;;;15.37;9.17;;;11.90;59.50;;;;;;4998427;28;20188;-90
2022/04/18 08:12:07;;;;;;;14.40;9.70;;;11.80;58.70;;;;;;4998139;28;20173;-90
2022/04/18 08:14:32;;;;;;;14.17;9.13;;;12.00;59.60;;;;;;5015392;28;20177;-92
2022/04/18 08:16:58;;;;;;;14.47;9.30;;;12.10;59.80;;;;;;4998552;28;20563;-91
2022/04/18 08:19:23;;;;;;;11.80;8.67;;;12.20;58.20;;;;;;4997355;28;20636;-91
2022/04/18 08:21:49;;;;;;;14.20;9.17;;;12.10;57.30;;;;;;4997752;28;20209;-91
2022/04/18 08:24:14;;;;;;;12.33;7.50;;;12.20;57.90;;;;;;4997805;28;20192;-90
2022/04/18 08:26:40;;;;;;;13.33;7.90;;;12.30;57.20;;;;;;4997714;28;20198;-90
2022/04/18 08:29:06;;;;;;;9.63;7.87;;;12.50;56.60;;;;;;4997744;28;20181;-90
2022/04/18 08:31:32;;;;;;;10.90;7.47;;;12.60;55.20;;;;;;5015156;28;20180;-91
2022/04/18 08:33:58;;;;;;;12.73;8.10;;;12.50;56.60;;;;;;5015179;28;20656;-90
2022/04/18 08:36:23;;;;;;;12.20;7.77;;;12.40;54.90;;;;;;4997611;28;20216;-91
2022/04/18 08:38:49;;;;;;;10.67;7.90;;;12.30;55.60;;;;;;4997552;28;20272;-90
2022/04/18 08:41:21;;;;;;;13.73;8.50;;;12.50;56.40;;;;;;5014952;28;20229;-90
2022/04/18 08:43:48;;;;;;;12.93;8.77;;;12.70;56.20;;;;;;4997445;28;20165;-91
2022/04/18 08:46:15;;;;;;;10.43;7.83;;;12.80;54.00;;;;;;4997593;28;20198;-90
2022/04/18 08:54:13;;;;;;;11.20;7.90;;;13.30;51.60;;;;;;5015340;28;20206;-91
2022/04/18 08:56:39;;;;;;;10.30;6.67;;;13.30;52.60;;;;;;4997110;28;20749;-91
2022/04/18 08:59:04;;;;;;;14.33;8.17;;;13.30;51.40;;;;;;4997220;28;20285;-91
2022/04/18 09:01:30;;;;;;;15.00;8.03;;;13.70;52.70;;;;;;4996907;28;20201;-91
2022/04/18 09:03:55;;;;;;;10.33;7.47;;;13.80;51.30;;;;;;4997078;28;20260;-90
2022/04/18 09:06:24;;;;;;;10.83;7.60;;;13.80;52.90;;;;;;4996930;28;20193;-90
2022/04/18 09:08:56;;;;;;;10.70;7.17;;;13.60;49.40;;;;;;5014584;28;20248;-91
2022/04/18 09:11:30;;;;;;;10.87;6.90;;;13.70;51.30;;;;;;4997790;28;20632;-90
2022/04/18 09:14:11;;;;;;;11.30;7.90;;;14.00;48.60;;;;;;4998233;28;20173;-89
2022/04/18 09:16:38;;;;;;;10.37;7.73;;;13.80;49.20;;;;;;5014367;28;20193;-91
2022/04/18 09:19:12;;;;;;;11.33;7.43;;;14.10;49.10;;;;;;4997191;28;20173;-91
2022/04/18 09:22:00;;;;;;;11.07;7.10;;;14.10;48.80;;;;;;4996778;28;20331;-91
2022/04/18 09:24:37;;;;;;;9.37;7.10;;;14.20;48.30;;;;;;4996641;28;20554;-90
2022/04/18 09:27:27;;;;;;;10.67;7.40;;;14.30;47.70;;;;;;5014523;28;20162;-90
2022/04/18 09:30:10;;;;;;;11.83;7.80;;;14.60;47.90;;;;;;5014623;28;20515;-91
2022/04/18 09:32:36;;;;;;;11.90;7.80;;;14.30;49.00;;;;;;4996570;28;20177;-92
2022/04/18 09:35:04;;;;;;;12.03;8.47;;;14.40;49.60;;;;;;5014182;28;20209;-91
2022/04/18 09:37:30;;;;;;;11.73;7.10;;;14.70;48.60;;;;;;5022653;23;20225;-92
2022/04/18 09:39:57;;;;;;;11.67;7.90;;;14.70;47.60;;;;;;4997368;28;20182;-93
2022/04/18 09:42:25;;;;;;;11.63;7.43;;;14.80;47.10;;;;;;4997691;28;20292;-93
2022/04/18 09:44:51;;;;;;;7.47;5.50;;;14.80;47.50;;;;;;4997888;28;20183;-93
2022/04/18 09:47:19;;;;;;;9.03;5.77;;;15.00;44.50;;;;;;4982304;28;20266;-93
2022/04/18 09:49:45;;;;;;;8.00;5.33;;;14.90;42.90;;;;;;4978719;28;20587;-93
2022/04/18 09:52:18;;;;;;;12.03;6.80;;;15.10;42.70;;;;;;4978703;28;20206;-93
2022/04/18 09:54:50;;;;;;;8.97;6.57;;;15.10;43.40;;;;;;4982230;28;20174;-92
2022/04/18 09:57:21;;;;;;;10.83;6.30;;;15.30;47.50;;;;;;4977166;28;20201;-92
2022/04/18 09:59:48;;;;;;;7.50;5.50;;;15.20;43.90;;;;;;4981082;28;20555;-93
2022/04/18 10:02:14;;;;;;;7.87;6.00;;;15.20;42.20;;;;;;4982831;28;20202;-93
2022/04/18 10:04:40;;;;;;;7.47;5.33;;;15.10;41.80;;;;;;4977795;28;20695;-94
2022/04/18 10:07:07;;;;;;;9.53;5.83;;;15.00;42.80;;;;;;4980884;28;20206;-93
2022/04/18 10:09:33;;;;;;;10.27;6.60;;;15.00;42.70;;;;;;4976933;28;20254;-93
2022/04/18 10:12:00;;;;;;;7.30;5.40;;;15.20;42.50;;;;;;4976957;28;20269;-93
2022/04/18 10:14:25;;;;;;;7.20;5.10;;;15.20;40.90;;;;;;4977053;28;20796;-93
2022/04/18 10:16:53;;;;;;;8.93;5.70;;;15.70;41.00;;;;;;4976776;28;20217;-93
2022/04/18 10:19:46;;;;;;;11.87;5.37;;;15.70;36.40;;;;;;4976845;28;20261;-93
2022/04/18 10:22:30;;;;;;;9.13;5.73;;;15.70;39.20;;;;;;4977007;28;20205;-93
2022/04/18 10:25:11;;;;;;;8.50;5.50;;;15.80;40.00;;;;;;4976653;28;20182;-92
2022/04/18 10:27:55;;;;;;;8.25;5.68;;;15.90;38.00;;;;;;4976807;28;20201;-93
2022/04/18 10:30:21;;;;;;;9.10;5.70;;;16.10;37.90;;;;;;4976888;28;20173;-93
2022/04/18 10:32:48;;;;;;;7.90;5.72;;;16.20;36.50;;;;;;4977355;28;20186;-93
2022/04/18 10:35:14;;;;;;;8.50;5.55;;;16.20;36.50;;;;;;4976863;28;20178;-92
2022/04/18 10:37:53;;;;;;;11.52;6.18;;;16.00;39.60;;;;;;4977022;28;20217;-92
2022/04/18 10:40:19;;;;;;;9.23;6.45;;;16.20;40.60;;;;;;4977315;28;20174;-93
2022/04/18 10:42:45;;;;;;;8.25;5.80;;;16.30;38.00;;;;;;4978920;28;20232;-92
2022/04/18 10:45:14;;;;;;;9.50;6.07;;;16.10;35.60;;;;;;4981189;28;20193;-93
2022/04/18 10:48:06;;;;;;;7.10;5.30;;;16.10;37.30;;;;;;4980928;28;20222;-93
2022/04/18 10:50:45;;;;;;;8.85;5.40;;;16.20;37.30;;;;;;4997894;28;20174;-92
2022/04/18 10:53:34;;;;;;;8.38;5.93;;;16.10;35.70;;;;;;4980951;28;20580;-92
2022/04/18 10:56:00;;;;;;;9.45;7.00;;;16.20;38.00;;;;;;4980028;28;20198;-91
2022/04/18 10:58:35;;;;;;;9.73;6.03;;;16.20;37.30;;;;;;4997750;28;20236;-92
2022/04/18 11:01:03;;;;;;;9.48;6.18;;;16.60;39.00;;;;;;4980299;28;20281;-92
2022/04/18 11:03:38;;;;;;;10.05;6.18;;;16.70;37.40;;;;;;4997273;28;20174;-91
2022/04/18 11:06:15;;;;;;;9.57;6.75;;;16.90;38.40;;;;;;4980089;28;20217;-91
2022/04/18 11:08:42;;;;;;;6.90;5.60;;;16.80;39.00;;;;;;4979877;28;20181;-91
2022/04/18 11:11:15;;;;;;;10.10;7.00;;;16.70;40.40;;;;;;4979990;28;20236;-91
2022/04/18 11:13:47;;;;;;;10.13;7.18;;;16.40;37.80;;;;;;4980131;28;20166;-91
2022/04/18 11:16:22;;;;;;;10.57;7.10;;;16.00;38.80;;;;;;4979981;28;20212;-92
2022/04/18 11:19:07;;;;;;;10.55;6.95;;;16.00;37.90;;;;;;4980032;28;20177;-92
2022/04/18 11:21:59;;;;;;;9.00;6.65;;;16.20;37.90;;;;;;4979633;28;20210;-92
2022/04/18 11:24:42;;;;;;;12.40;6.85;;;16.20;38.70;;;;;;4980169;28;20205;-91
2022/04/18 11:27:14;;;;;;;9.35;6.72;;;16.30;39.60;;;;;;4979604;28;20201;-91
2022/04/18 11:29:42;;;;;;;11.32;6.60;;;16.20;37.90;;;;;;4979983;28;20175;-90
2022/04/18 11:32:09;;;;;;;10.77;7.00;;;16.40;40.00;;;;;;4979244;28;20177;-91
2022/04/18 11:34:36;;;;;;;12.82;7.45;;;16.50;35.70;;;;;;4979506;28;20378;-92
2022/04/18 11:37:04;;;;;;;11.18;6.88;;;16.30;35.90;;;;;;4979302;28;20217;-92
2022/04/18 11:39:43;;;;;;;8.20;6.18;;;16.40;37.70;;;;;;4996829;28;20170;-92
2022/04/18 11:42:09;;;;;;;7.88;6.18;;;16.70;40.40;;;;;;4979657;28;20209;-92
2022/04/18 11:44:40;;;;;;;9.57;6.38;;;16.90;38.40;;;;;;4979159;28;20182;-92
2022/04/18 11:47:10;;;;;;;8.48;6.30;;;17.00;38.20;;;;;;4979805;28;20194;-92
2022/04/18 11:49:38;;;;;;;9.00;6.68;;;17.10;37.80;;;;;;4997107;28;20544;-92
2022/04/18 11:52:16;;;;;;;12.52;7.25;;;17.10;38.30;;;;;;4979274;28;20190;-93
2022/04/18 11:54:54;;;;;;;8.23;6.78;;;16.90;38.40;;;;;;4978169;28;20162;-93
2022/04/18 11:57:19;;;;;;;8.30;5.90;;;16.80;36.60;;;;;;4979931;28;20683;-93
2022/04/18 11:59:47;;;;;;;7.80;5.90;;;16.70;36.10;;;;;;4979380;28;20186;-93
2022/04/18 12:07:48;;;;;;;9.77;6.22;;;16.80;41.10;;;;;;4996428;28;20699;-92
2022/04/18 12:10:25;;;;;;;9.82;5.75;;;17.00;38.80;;;;;;4978912;28;20193;-93
2022/04/18 12:12:52;;;;;;;8.80;5.70;;;16.80;36.90;;;;;;4996429;28;20193;-92
2022/04/18 12:15:22;;;;;;;8.73;6.22;;;16.90;39.30;;;;;;4979031;28;20178;-91
2022/04/18 12:17:49;;;;;;;11.43;6.60;;;16.80;38.10;;;;;;4978714;28;20244;-92
2022/04/18 12:20:29;;;;;;;11.40;7.03;;;16.80;39.90;;;;;;4979145;28;20182;-92
2022/04/18 12:23:00;;;;;;;9.68;7.70;;;16.90;38.90;;;;;;4979186;28;20197;-92
2022/04/18 12:25:33;;;;;;;9.40;7.13;;;16.90;39.70;;;;;;4978461;28;20197;-93
2022/04/18 12:28:05;;;;;;;9.02;6.22;;;17.00;38.50;;;;;;4978610;28;20177;-93
2022/04/18 12:30:30;;;;;;;8.07;6.70;;;17.20;39.20;;;;;;4978690;28;20178;-92
2022/04/18 12:33:10;;;;;;;8.93;6.65;;;17.20;39.70;;;;;;4978419;28;20182;-92
2022/04/18 12:35:43;;;;;;;7.82;6.07;;;17.40;38.90;;;;;;4978135;28;20194;-92
2022/04/18 12:38:11;;;;;;;10.60;5.55;;;17.60;39.10;;;;;;4979135;28;20178;-93
2022/04/18 12:40:45;;;;;;;9.00;6.15;;;17.50;35.90;;;;;;4978543;28;20184;-93
2022/04/18 12:43:16;;;;;;;10.63;5.43;;;17.50;37.90;;;;;;4979231;28;20225;-93
2022/04/18 12:45:50;;;;;;;6.63;5.38;;;17.50;39.40;;;;;;4977501;28;20182;-93
2022/04/18 12:48:21;;;;;;;8.85;6.00;;;17.70;39.40;;;;;;4978773;28;20172;-93
2022/04/18 12:50:47;;;;;;;11.65;6.78;;;17.50;38.00;;;;;;4978453;28;20233;-93
2022/04/18 12:53:12;;;;;;;9.73;6.95;;;17.40;39.20;;;;;;4978106;28;20178;-93
2022/04/18 12:55:38;;;;;;;9.20;6.47;;;17.60;38.50;;;;;;4978424;28;20209;-93
2022/04/18 12:58:15;;;;;;;10.23;6.18;;;17.40;38.60;;;;;;4979329;28;20209;-93
2022/04/18 13:00:40;;;;;;;7.65;6.20;;;17.50;40.00;;;;;;4980893;28;20178;-92
2022/04/18 13:03:07;;;;;;;10.88;6.22;;;17.30;37.90;;;;;;4980456;28;20320;-91
2022/04/18 13:05:41;;;;;;;9.07;6.07;;;17.50;39.10;;;;;;4977909;28;20189;-93
2022/04/18 13:08:07;;;;;;;6.38;5.60;;;17.60;39.70;;;;;;4995440;28;20166;-92
2022/04/18 13:10:35;;;;;;;13.15;7.22;;;17.40;39.20;;;;;;4978219;28;20656;-93
2022/04/18 13:13:12;;;;;;;10.13;7.00;;;17.20;39.30;;;;;;4977556;28;20178;-93
2022/04/18 13:15:41;;;;;;;12.88;6.35;;;17.40;37.30;;;;;;4977705;28;20216;-93